Time;durP1;ratioP1;P1;durP2;ratioP2;P2;SDS_P1;SDS_P2;PMS_P1;PMS_P2;Temp;Humidity;BMP_temperature;BMP_pressure;BME280_temperature;BME280_humidity;BME280_pressure;Samples;Min_cycle;Max_cycle;Signal;HPM_P1;HPM_P2
2021/06/24 00:00:46;;;;;;;11.00;9.77;;;;;;;;;;5090640;28;20035;-51
2021/06/24 00:03:11;;;;;;;11.60;9.82;;;;;;;;;;5093529;28;20036;-50
2021/06/24 00:05:36;;;;;;;13.00;10.25;;;;;;;;;;5089363;28;20070;-53
2021/06/24 00:08:02;;;;;;;11.25;9.80;;;;;;;;;;5079739;28;20090;-55
2021/06/24 00:10:27;;;;;;;11.95;10.70;;;;;;;;;;5086763;28;20035;-54
2021/06/24 00:12:52;;;;;;;12.00;9.60;;;;;;;;;;5076238;28;20090;-53
2021/06/24 00:15:17;;;;;;;11.95;10.35;;;;;;;;;;5089780;28;20020;-54
2021/06/24 00:17:43;;;;;;;12.05;10.60;;;;;;;;;;5088326;28;20429;-53
2021/06/24 00:20:08;;;;;;;14.23;10.85;;;;;;;;;;5083764;28;20107;-51
2021/06/24 00:22:34;;;;;;;10.05;9.15;;;;;;;;;;5084248;28;20461;-54
2021/06/24 00:24:59;;;;;;;12.75;10.13;;;;;;;;;;5093538;28;20043;-52
2021/06/24 00:27:25;;;;;;;12.02;10.88;;;;;;;;;;5084382;28;20008;-55
2021/06/24 00:29:50;;;;;;;14.63;10.93;;;;;;;;;;5092695;28;20028;-53
2021/06/24 00:32:15;;;;;;;12.10;10.23;;;;;;;;;;5081748;28;20024;-54
2021/06/24 00:34:40;;;;;;;12.35;11.15;;;;;;;;;;5072760;28;20032;-52
2021/06/24 00:37:06;;;;;;;12.68;11.38;;;;;;;;;;5078559;28;20020;-53
2021/06/24 00:39:31;;;;;;;14.23;11.18;;;;;;;;;;5071178;28;20020;-55
2021/06/24 00:41:56;;;;;;;13.60;11.55;;;;;;;;;;5071883;28;20039;-54
2021/06/24 00:44:21;;;;;;;15.88;11.40;;;;;;;;;;5072883;28;20044;-52
2021/06/24 00:46:47;;;;;;;15.98;13.15;;;;;;;;;;5081306;28;20028;-52
2021/06/24 00:49:12;;;;;;;23.73;13.93;;;;;;;;;;5072376;28;20025;-55
2021/06/24 00:51:37;;;;;;;17.15;13.65;;;;;;;;;;5069610;28;20021;-55
2021/06/24 00:54:02;;;;;;;13.48;12.05;;;;;;;;;;5087981;28;20107;-54
2021/06/24 00:56:31;;;;;;;15.35;12.07;;;;;;;;;;5079894;28;20108;-48
2021/06/24 00:58:57;;;;;;;15.00;12.90;;;;;;;;;;5073093;28;20016;-55
2021/06/24 01:01:22;;;;;;;16.05;13.02;;;;;;;;;;5069320;28;20554;-53
2021/06/24 01:03:48;;;;;;;14.32;12.80;;;;;;;;;;5072442;28;20067;-53
2021/06/24 01:06:13;;;;;;;14.43;12.98;;;;;;;;;;5086566;28;20066;-53
2021/06/24 01:08:38;;;;;;;13.45;12.10;;;;;;;;;;5078093;28;20379;-49
2021/06/24 01:11:03;;;;;;;14.00;12.60;;;;;;;;;;5069906;28;20023;-52
2021/06/24 01:13:29;;;;;;;13.18;11.77;;;;;;;;;;5089567;28;20016;-54
2021/06/24 01:15:55;;;;;;;16.48;12.90;;;;;;;;;;5077627;28;20028;-52
2021/06/24 01:18:20;;;;;;;14.73;13.13;;;;;;;;;;5079762;28;20106;-54
2021/06/24 01:20:45;;;;;;;15.73;13.10;;;;;;;;;;5069041;28;20020;-53
2021/06/24 01:23:12;;;;;;;17.52;13.52;;;;;;;;;;5079482;28;20012;-53
2021/06/24 01:25:37;;;;;;;16.48;14.13;;;;;;;;;;5078244;28;20016;-52
2021/06/24 01:28:07;;;;;;;13.35;11.73;;;;;;;;;;5083657;28;20364;-52
2021/06/24 01:30:33;;;;;;;13.70;12.25;;;;;;;;;;5073557;28;20113;-53
2021/06/24 01:32:59;;;;;;;14.60;12.20;;;;;;;;;;5076485;28;20549;-55
2021/06/24 01:35:25;;;;;;;14.18;12.75;;;;;;;;;;5087264;28;20066;-54
2021/06/24 01:37:55;;;;;;;17.35;14.93;;;;;;;;;;5083306;28;20456;-51
2021/06/24 01:40:20;;;;;;;14.27;12.55;;;;;;;;;;5074688;28;20033;-51
2021/06/24 01:42:46;;;;;;;15.13;12.20;;;;;;;;;;5074874;28;20023;-54
2021/06/24 01:45:12;;;;;;;15.85;13.63;;;;;;;;;;5085177;28;20099;-51
2021/06/24 01:47:37;;;;;;;14.40;12.90;;;;;;;;;;5091044;28;20028;-53
2021/06/24 01:50:07;;;;;;;17.17;13.43;;;;;;;;;;5095192;28;20024;-55
2021/06/24 01:52:32;;;;;;;15.35;12.95;;;;;;;;;;5093174;28;20418;-53
2021/06/24 01:54:57;;;;;;;16.05;12.43;;;;;;;;;;5094092;28;20043;-55
2021/06/24 01:57:22;;;;;;;13.02;11.73;;;;;;;;;;5094855;28;20028;-55
2021/06/24 01:59:48;;;;;;;15.23;12.90;;;;;;;;;;5086403;28;20028;-55
2021/06/24 02:02:14;;;;;;;18.83;13.55;;;;;;;;;;5074017;28;20048;-54
2021/06/24 02:04:39;;;;;;;14.35;12.60;;;;;;;;;;5090377;28;20476;-53
2021/06/24 02:07:04;;;;;;;17.95;13.15;;;;;;;;;;5080109;28;20095;-55
2021/06/24 02:09:30;;;;;;;16.48;13.48;;;;;;;;;;5092174;28;20204;-54
2021/06/24 02:11:56;;;;;;;16.13;13.18;;;;;;;;;;5092131;28;20047;-55
2021/06/24 02:14:21;;;;;;;15.82;13.80;;;;;;;;;;5093222;28;20077;-53
2021/06/24 02:16:46;;;;;;;18.67;15.05;;;;;;;;;;5088430;28;20020;-53
2021/06/24 02:19:12;;;;;;;16.38;14.68;;;;;;;;;;5093053;28;20008;-49
2021/06/24 02:21:37;;;;;;;20.17;14.90;;;;;;;;;;5074703;28;20468;-54
2021/06/24 02:24:02;;;;;;;17.45;13.45;;;;;;;;;;5075364;28;20043;-52
2021/06/24 02:26:27;;;;;;;15.95;14.07;;;;;;;;;;5079992;28;20020;-55
2021/06/24 02:28:53;;;;;;;16.45;13.77;;;;;;;;;;5094747;28;20004;-54
2021/06/24 02:31:18;;;;;;;17.23;13.48;;;;;;;;;;5092246;28;20020;-53
2021/06/24 02:33:43;;;;;;;20.23;14.95;;;;;;;;;;5092305;28;20016;-54
2021/06/24 02:36:08;;;;;;;17.15;14.98;;;;;;;;;;5094158;28;20024;-52
2021/06/24 02:38:34;;;;;;;16.13;13.95;;;;;;;;;;5074815;28;20036;-55
2021/06/24 02:40:59;;;;;;;19.73;16.10;;;;;;;;;;5071700;28;20042;-54
2021/06/24 02:43:24;;;;;;;21.50;16.20;;;;;;;;;;5074892;28;20020;-54
2021/06/24 02:45:49;;;;;;;22.17;16.20;;;;;;;;;;5075380;28;20395;-54
2021/06/24 02:48:14;;;;;;;18.85;15.75;;;;;;;;;;5089774;28;20020;-54
2021/06/24 02:50:40;;;;;;;16.77;13.85;;;;;;;;;;5078587;28;20115;-56
2021/06/24 02:53:05;;;;;;;18.77;14.70;;;;;;;;;;5074788;28;20442;-54
2021/06/24 02:55:30;;;;;;;16.50;14.68;;;;;;;;;;5078344;28;20491;-55
2021/06/24 02:57:59;;;;;;;15.98;12.98;;;;;;;;;;5074623;28;20029;-55
2021/06/24 03:00:24;;;;;;;17.30;14.70;;;;;;;;;;5091127;28;20020;-51
2021/06/24 03:02:49;;;;;;;16.50;13.98;;;;;;;;;;5087092;28;20051;-54
2021/06/24 03:05:15;;;;;;;15.98;14.27;;;;;;;;;;5074489;28;20012;-54
2021/06/24 03:07:40;;;;;;;17.27;14.48;;;;;;;;;;5076229;28;20021;-54
2021/06/24 03:10:06;;;;;;;18.52;14.65;;;;;;;;;;5094211;28;20032;-54
2021/06/24 03:12:32;;;;;;;15.13;13.52;;;;;;;;;;5091185;28;20061;-54
2021/06/24 03:14:57;;;;;;;15.77;14.15;;;;;;;;;;5084779;28;20463;-53
2021/06/24 03:17:22;;;;;;;15.80;14.15;;;;;;;;;;5076700;28;20541;-53
2021/06/24 03:19:47;;;;;;;16.20;14.60;;;;;;;;;;5086663;28;20086;-51
2021/06/24 03:22:12;;;;;;;16.50;14.80;;;;;;;;;;5091371;28;20413;-55
2021/06/24 03:24:38;;;;;;;16.70;14.25;;;;;;;;;;5092145;28;20020;-53
2021/06/24 03:27:03;;;;;;;16.65;13.52;;;;;;;;;;5094388;28;20036;-54
2021/06/24 03:29:28;;;;;;;17.45;15.65;;;;;;;;;;5083059;28;20123;-56
2021/06/24 03:31:54;;;;;;;21.35;15.50;;;;;;;;;;5073152;28;20028;-53
2021/06/24 03:34:19;;;;;;;22.02;17.25;;;;;;;;;;5089279;28;20039;-54
2021/06/24 03:36:44;;;;;;;16.50;14.75;;;;;;;;;;5093483;28;20016;-54
2021/06/24 03:39:09;;;;;;;18.52;14.48;;;;;;;;;;5093825;28;20023;-54
2021/06/24 03:41:35;;;;;;;18.00;15.45;;;;;;;;;;5090834;28;20028;-53
2021/06/24 03:44:00;;;;;;;17.35;15.52;;;;;;;;;;5093246;28;20024;-53
2021/06/24 03:46:26;;;;;;;18.23;16.17;;;;;;;;;;5083740;28;20020;-55
2021/06/24 03:48:52;;;;;;;16.73;14.60;;;;;;;;;;5090129;28;20093;-54
2021/06/24 03:51:17;;;;;;;16.58;13.68;;;;;;;;;;5069897;28;20035;-53
2021/06/24 03:53:42;;;;;;;18.58;14.82;;;;;;;;;;5073734;28;20383;-54
2021/06/24 03:56:08;;;;;;;18.98;14.57;;;;;;;;;;5093091;28;20023;-54
2021/06/24 03:58:33;;;;;;;17.38;14.20;;;;;;;;;;5093651;28;20507;-53
2021/06/24 04:00:59;;;;;;;16.85;14.85;;;;;;;;;;5089630;28;20024;-56
2021/06/24 04:03:24;;;;;;;16.10;14.40;;;;;;;;;;5087308;28;20095;-54
2021/06/24 04:05:49;;;;;;;18.30;14.65;;;;;;;;;;5083582;28;21287;-53
2021/06/24 04:08:14;;;;;;;16.25;14.55;;;;;;;;;;5087033;28;20047;-53
2021/06/24 04:10:40;;;;;;;16.90;14.88;;;;;;;;;;5070458;28;20020;-52
2021/06/24 04:13:05;;;;;;;17.95;15.77;;;;;;;;;;5082836;28;20024;-54
2021/06/24 04:15:31;;;;;;;15.52;12.98;;;;;;;;;;5090452;28;20494;-55
2021/06/24 04:17:56;;;;;;;15.15;13.23;;;;;;;;;;5086106;28;20066;-54
2021/06/24 04:20:22;;;;;;;16.48;13.18;;;;;;;;;;5091801;28;20077;-54
2021/06/24 04:22:47;;;;;;;15.60;14.00;;;;;;;;;;5091154;28;20013;-53
2021/06/24 04:25:14;;;;;;;15.55;12.82;;;;;;;;;;5078220;28;20383;-54
2021/06/24 04:27:39;;;;;;;17.30;14.73;;;;;;;;;;5093363;28;20463;-54
2021/06/24 04:30:05;;;;;;;14.90;13.38;;;;;;;;;;5092011;28;20031;-52
2021/06/24 04:32:31;;;;;;;17.40;14.25;;;;;;;;;;5088948;28;20031;-56
2021/06/24 04:34:56;;;;;;;17.30;13.43;;;;;;;;;;5076053;28;20375;-55
2021/06/24 04:37:21;;;;;;;16.42;14.77;;;;;;;;;;5087086;28;20486;-55
2021/06/24 04:39:46;;;;;;;13.95;12.48;;;;;;;;;;5092894;28;20012;-56
2021/06/24 04:42:12;;;;;;;16.15;14.00;;;;;;;;;;5084708;28;20142;-53
2021/06/24 04:44:37;;;;;;;16.27;13.23;;;;;;;;;;5082451;28;20148;-55
2021/06/24 04:47:03;;;;;;;15.57;13.73;;;;;;;;;;5080946;28;20027;-54
2021/06/24 04:49:28;;;;;;;15.15;13.20;;;;;;;;;;5092259;28;20035;-53
2021/06/24 04:51:54;;;;;;;16.98;14.25;;;;;;;;;;5088762;28;20020;-55
2021/06/24 04:54:19;;;;;;;15.48;13.88;;;;;;;;;;5086094;28;20103;-55
2021/06/24 04:56:44;;;;;;;15.45;13.75;;;;;;;;;;5084817;28;20024;-52
2021/06/24 04:59:10;;;;;;;18.77;15.20;;;;;;;;;;5091050;28;20103;-49
2021/06/24 05:01:35;;;;;;;18.15;15.25;;;;;;;;;;5087805;28;20050;-52
2021/06/24 05:04:00;;;;;;;17.35;14.73;;;;;;;;;;5092125;28;20301;-52
2021/06/24 05:06:26;;;;;;;17.23;14.63;;;;;;;;;;5080277;28;20020;-53
2021/06/24 05:08:51;;;;;;;19.00;15.20;;;;;;;;;;5085049;28;20420;-53
2021/06/24 05:11:16;;;;;;;15.23;13.73;;;;;;;;;;5081847;28;20024;-54
2021/06/24 05:13:42;;;;;;;18.38;16.00;;;;;;;;;;5091626;28;20020;-54
2021/06/24 05:16:07;;;;;;;17.05;13.75;;;;;;;;;;5076949;28;20107;-56
2021/06/24 05:18:34;;;;;;;15.75;13.48;;;;;;;;;;5076896;28;20028;-55
2021/06/24 05:20:59;;;;;;;16.08;14.40;;;;;;;;;;5089357;28;20051;-56
2021/06/24 05:23:25;;;;;;;15.73;14.05;;;;;;;;;;5081131;28;20051;-53
2021/06/24 05:25:50;;;;;;;17.17;15.23;;;;;;;;;;5081536;28;20058;-54
2021/06/24 05:28:15;;;;;;;21.00;14.77;;;;;;;;;;5072177;28;20024;-56
2021/06/24 05:30:41;;;;;;;16.95;14.93;;;;;;;;;;5072795;28;20467;-55
2021/06/24 05:33:06;;;;;;;18.45;15.32;;;;;;;;;;5085859;28;20429;-55
2021/06/24 05:35:31;;;;;;;16.63;14.68;;;;;;;;;;5073391;28;20036;-55
2021/06/24 05:37:57;;;;;;;18.80;16.50;;;;;;;;;;5091044;28;20020;-56
2021/06/24 05:40:22;;;;;;;20.17;15.13;;;;;;;;;;5088800;28;20027;-52
2021/06/24 05:42:48;;;;;;;19.65;15.32;;;;;;;;;;5089494;28;20074;-54
2021/06/24 05:45:13;;;;;;;17.90;15.70;;;;;;;;;;5074589;28;20107;-55
2021/06/24 05:47:39;;;;;;;22.80;18.65;;;;;;;;;;5079129;28;20383;-53
2021/06/24 05:50:04;;;;;;;22.13;19.83;;;;;;;;;;5071251;28;20025;-53
2021/06/24 05:52:30;;;;;;;18.88;16.88;;;;;;;;;;5086976;28;20558;-56
2021/06/24 05:54:55;;;;;;;23.92;19.33;;;;;;;;;;5086550;28;20024;-55
2021/06/24 05:57:20;;;;;;;18.77;16.80;;;;;;;;;;5079871;28;20031;-54
2021/06/24 05:59:46;;;;;;;18.38;16.48;;;;;;;;;;5087966;28;20035;-55
2021/06/24 06:02:11;;;;;;;20.83;17.70;;;;;;;;;;5068457;28;20055;-56
2021/06/24 06:04:36;;;;;;;18.33;16.58;;;;;;;;;;5089851;28;20016;-55
2021/06/24 06:07:02;;;;;;;19.35;16.63;;;;;;;;;;5090602;28;20051;-53
2021/06/24 06:09:28;;;;;;;17.60;15.88;;;;;;;;;;5086710;28;20073;-53
2021/06/24 06:11:54;;;;;;;19.48;17.40;;;;;;;;;;5083792;28;20047;-54
2021/06/24 06:14:19;;;;;;;21.13;16.40;;;;;;;;;;5093863;28;20057;-57
2021/06/24 06:16:45;;;;;;;18.05;16.25;;;;;;;;;;5092086;28;20030;-52
2021/06/24 06:19:11;;;;;;;18.48;16.52;;;;;;;;;;5083954;28;20016;-54
2021/06/24 06:21:36;;;;;;;18.88;16.95;;;;;;;;;;5079499;28;20020;-53
2021/06/24 06:24:01;;;;;;;19.45;17.25;;;;;;;;;;5084540;28;20086;-55
2021/06/24 06:26:27;;;;;;;24.20;20.30;;;;;;;;;;5092514;28;20029;-55
2021/06/24 06:28:52;;;;;;;18.25;16.58;;;;;;;;;;5082100;28;20025;-51
2021/06/24 06:31:19;;;;;;;19.00;17.13;;;;;;;;;;5080379;28;20016;-55
2021/06/24 06:33:44;;;;;;;22.48;17.23;;;;;;;;;;5088338;28;20021;-54
2021/06/24 06:36:09;;;;;;;19.90;17.63;;;;;;;;;;5084566;28;20485;-54
2021/06/24 06:38:35;;;;;;;18.08;15.30;;;;;;;;;;5081125;28;20503;-50
2021/06/24 06:41:00;;;;;;;18.67;15.45;;;;;;;;;;5085688;28;20018;-51
2021/06/24 06:43:26;;;;;;;17.75;14.48;;;;;;;;;;5082752;28;20028;-56
2021/06/24 06:45:51;;;;;;;20.20;16.77;;;;;;;;;;5083657;28;20012;-53
2021/06/24 06:48:17;;;;;;;18.58;16.63;;;;;;;;;;5085848;28;20028;-53
2021/06/24 06:50:42;;;;;;;19.00;16.02;;;;;;;;;;5076152;28;20048;-55
2021/06/24 06:53:08;;;;;;;18.30;16.10;;;;;;;;;;5086191;28;20382;-53
2021/06/24 06:55:34;;;;;;;22.60;17.48;;;;;;;;;;5092225;28;20020;-52
2021/06/24 06:57:59;;;;;;;18.60;16.60;;;;;;;;;;5088175;28;20385;-52
2021/06/24 07:00:25;;;;;;;19.92;17.85;;;;;;;;;;5091701;28;20023;-50
2021/06/24 07:02:51;;;;;;;22.50;17.90;;;;;;;;;;5077144;28;20040;-54
2021/06/24 07:05:16;;;;;;;22.42;20.05;;;;;;;;;;5074186;28;20008;-54
2021/06/24 07:07:41;;;;;;;21.95;19.73;;;;;;;;;;5085287;28;20013;-53
2021/06/24 07:10:07;;;;;;;23.52;20.08;;;;;;;;;;5094581;28;20076;-54
2021/06/24 07:12:32;;;;;;;22.50;20.15;;;;;;;;;;5089980;28;20106;-55
2021/06/24 07:14:57;;;;;;;26.85;22.35;;;;;;;;;;5079732;28;20078;-54
2021/06/24 07:17:23;;;;;;;29.95;24.10;;;;;;;;;;5092637;28;20375;-50
2021/06/24 07:19:48;;;;;;;26.35;21.90;;;;;;;;;;5078132;28;20483;-51
2021/06/24 07:22:13;;;;;;;23.45;20.92;;;;;;;;;;5071170;28;20012;-52
2021/06/24 07:24:38;;;;;;;23.95;21.45;;;;;;;;;;5076384;28;20038;-54
2021/06/24 07:27:04;;;;;;;24.20;19.83;;;;;;;;;;5077391;28;20020;-56
2021/06/24 07:29:29;;;;;;;25.08;21.40;;;;;;;;;;5083607;28;20497;-52
2021/06/24 07:31:54;;;;;;;25.80;21.65;;;;;;;;;;5082220;28;20475;-50
2021/06/24 07:34:19;;;;;;;25.42;22.63;;;;;;;;;;5080217;28;20451;-55
2021/06/24 07:36:45;;;;;;;25.92;22.52;;;;;;;;;;5085351;28;20038;-55
2021/06/24 07:39:11;;;;;;;24.63;21.40;;;;;;;;;;5090471;28;20103;-54
2021/06/24 07:41:36;;;;;;;27.30;21.92;;;;;;;;;;5079727;28;20471;-52
2021/06/24 07:44:02;;;;;;;26.90;22.48;;;;;;;;;;5093987;28;20032;-54
2021/06/24 07:46:27;;;;;;;23.80;21.38;;;;;;;;;;5081335;28;20108;-54
2021/06/24 07:48:52;;;;;;;26.45;22.35;;;;;;;;;;5073409;28;20020;-53
2021/06/24 07:51:17;;;;;;;23.98;21.40;;;;;;;;;;5069993;28;20032;-54
2021/06/24 07:53:43;;;;;;;23.15;20.63;;;;;;;;;;5078538;28;20016;-55
2021/06/24 07:56:12;;;;;;;23.70;20.55;;;;;;;;;;5081303;28;20020;-52
2021/06/24 07:58:38;;;;;;;23.10;20.73;;;;;;;;;;5078727;28;20021;-53
2021/06/24 08:01:04;;;;;;;25.77;21.55;;;;;;;;;;5070009;28;20016;-50
2021/06/24 08:03:29;;;;;;;23.42;21.02;;;;;;;;;;5073067;28;20024;-51
2021/06/24 08:05:54;;;;;;;24.27;21.73;;;;;;;;;;5075620;28;20034;-53
2021/06/24 08:08:20;;;;;;;26.85;22.10;;;;;;;;;;5085862;28;20024;-55
2021/06/24 08:10:45;;;;;;;24.52;22.10;;;;;;;;;;5075456;28;20517;-49
2021/06/24 08:13:10;;;;;;;25.52;21.67;;;;;;;;;;5093332;28;20030;-53
2021/06/24 08:15:35;;;;;;;24.80;22.27;;;;;;;;;;5091815;28;20117;-53
2021/06/24 08:18:01;;;;;;;21.98;19.88;;;;;;;;;;5084522;28;20028;-53
2021/06/24 08:20:26;;;;;;;25.20;21.42;;;;;;;;;;5089106;28;20023;-55
2021/06/24 08:22:53;;;;;;;23.35;20.95;;;;;;;;;;5089945;28;20020;-54
2021/06/24 08:25:18;;;;;;;23.42;20.75;;;;;;;;;;5092232;28;20012;-54
2021/06/24 08:27:44;;;;;;;27.23;21.92;;;;;;;;;;5086068;28;20043;-54
2021/06/24 08:30:09;;;;;;;23.05;20.67;;;;;;;;;;5085896;28;20016;-53
2021/06/24 08:32:37;;;;;;;24.08;20.65;;;;;;;;;;5084749;28;20107;-51
2021/06/24 08:35:02;;;;;;;24.25;21.65;;;;;;;;;;5072611;28;20040;-54
2021/06/24 08:37:27;;;;;;;23.02;20.70;;;;;;;;;;5076433;28;20028;-52
2021/06/24 08:39:53;;;;;;;23.13;20.88;;;;;;;;;;5083782;28;20095;-54
2021/06/24 08:42:18;;;;;;;24.25;21.73;;;;;;;;;;5072450;28;20116;-52
2021/06/24 08:44:47;;;;;;;27.23;23.55;;;;;;;;;;5072400;28;20024;-53
2021/06/24 08:47:14;;;;;;;26.52;23.73;;;;;;;;;;5076738;28;20028;-52
2021/06/24 08:49:39;;;;;;;23.17;20.77;;;;;;;;;;5091299;28;20043;-52
2021/06/24 08:52:05;;;;;;;22.25;20.05;;;;;;;;;;5089143;28;20089;-49
2021/06/24 08:54:30;;;;;;;23.70;20.58;;;;;;;;;;5086117;28;20028;-52
2021/06/24 08:56:55;;;;;;;22.87;20.57;;;;;;;;;;5072184;28;20496;-53
2021/06/24 08:59:20;;;;;;;22.88;20.52;;;;;;;;;;5076764;28;20265;-53
2021/06/24 09:01:48;;;;;;;22.33;20.05;;;;;;;;;;5089405;28;20040;-55
2021/06/24 09:04:17;;;;;;;22.85;20.67;;;;;;;;;;5072739;28;20033;-53
2021/06/24 09:06:42;;;;;;;21.35;19.10;;;;;;;;;;5072136;28;20019;-54
2021/06/24 09:09:07;;;;;;;19.70;17.63;;;;;;;;;;5086071;28;20020;-53
2021/06/24 09:11:32;;;;;;;23.05;20.27;;;;;;;;;;5085906;28;20055;-52
2021/06/24 09:14:03;;;;;;;21.25;19.23;;;;;;;;;;5078625;28;20016;-50
2021/06/24 09:16:31;;;;;;;20.95;19.02;;;;;;;;;;5091482;28;20016;-54
2021/06/24 09:19:13;;;;;;;20.38;18.35;;;;;;;;;;5074372;28;20025;-54
2021/06/24 09:21:38;;;;;;;21.73;19.63;;;;;;;;;;5078861;28;20074;-52
2021/06/24 09:24:18;;;;;;;20.48;18.55;;;;;;;;;;5071777;28;20020;-52
2021/06/24 09:26:44;;;;;;;21.13;19.02;;;;;;;;;;5072394;28;20103;-54
2021/06/24 09:29:13;;;;;;;20.17;18.27;;;;;;;;;;5076130;28;20099;-55
2021/06/24 09:31:42;;;;;;;19.95;17.95;;;;;;;;;;5081271;28;20044;-56
2021/06/24 09:34:09;;;;;;;20.67;18.60;;;;;;;;;;5090390;28;20008;-54
2021/06/24 09:36:38;;;;;;;19.20;16.75;;;;;;;;;;5085469;28;20024;-53
2021/06/24 09:39:06;;;;;;;22.35;20.25;;;;;;;;;;5081903;28;20013;-56
2021/06/24 09:41:31;;;;;;;21.90;18.40;;;;;;;;;;5078939;28;20020;-56
2021/06/24 09:43:56;;;;;;;18.73;16.77;;;;;;;;;;5092227;28;20095;-55
2021/06/24 09:46:23;;;;;;;21.35;19.15;;;;;;;;;;5091164;28;20044;-52
2021/06/24 09:48:51;;;;;;;18.23;16.30;;;;;;;;;;5088749;28;20055;-54
2021/06/24 09:51:21;;;;;;;21.27;19.08;;;;;;;;;;5075663;28;20032;-47
2021/06/24 09:53:50;;;;;;;21.17;19.15;;;;;;;;;;5075903;28;20031;-51
2021/06/24 09:56:36;;;;;;;20.92;18.83;;;;;;;;;;5079253;28;20024;-54
2021/06/24 09:59:04;;;;;;;19.00;17.10;;;;;;;;;;5085364;28;20100;-52
2021/06/24 10:01:36;;;;;;;18.63;16.85;;;;;;;;;;5083081;28;20087;-56
2021/06/24 10:04:02;;;;;;;19.80;17.77;;;;;;;;;;5076124;28;20127;-52
2021/06/24 10:06:28;;;;;;;22.50;19.20;;;;;;;;;;5093160;28;20530;-53
2021/06/24 10:08:53;;;;;;;19.95;18.05;;;;;;;;;;5094492;28;20155;-53
2021/06/24 10:11:20;;;;;;;23.00;20.70;;;;;;;;;;5072485;28;20029;-51
2021/06/24 10:13:46;;;;;;;20.67;18.70;;;;;;;;;;5074156;28;20036;-52
2021/06/24 10:16:11;;;;;;;24.98;22.30;;;;;;;;;;5075508;28;20020;-52
2021/06/24 10:18:36;;;;;;;26.35;23.30;;;;;;;;;;5075615;28;20384;-52
2021/06/24 10:21:02;;;;;;;25.15;22.80;;;;;;;;;;5090044;28;20066;-54
2021/06/24 10:23:28;;;;;;;25.63;23.08;;;;;;;;;;5080410;28;20078;-55
2021/06/24 10:25:53;;;;;;;23.73;21.52;;;;;;;;;;5074280;28;20051;-53
2021/06/24 10:28:18;;;;;;;24.05;21.70;;;;;;;;;;5082404;28;20035;-54
2021/06/24 10:30:44;;;;;;;24.20;21.70;;;;;;;;;;5088248;28;20061;-54
2021/06/24 10:33:11;;;;;;;23.35;21.08;;;;;;;;;;5092340;28;20024;-54
2021/06/24 10:35:38;;;;;;;23.90;21.60;;;;;;;;;;5088398;28;20033;-54
2021/06/24 10:38:04;;;;;;;22.55;20.38;;;;;;;;;;5089451;28;20074;-55
2021/06/24 10:40:33;;;;;;;22.60;20.38;;;;;;;;;;5072455;28;20492;-55
2021/06/24 10:42:59;;;;;;;23.63;21.40;;;;;;;;;;5074929;28;20021;-54
2021/06/24 10:45:25;;;;;;;21.70;19.80;;;;;;;;;;5077930;28;20012;-53
2021/06/24 10:47:50;;;;;;;23.08;20.77;;;;;;;;;;5089924;28;20024;-55
2021/06/24 10:50:35;;;;;;;20.35;18.27;;;;;;;;;;5081056;28;20027;-53
2021/06/24 10:53:03;;;;;;;22.88;20.58;;;;;;;;;;5075873;28;20029;-53
2021/06/24 10:55:31;;;;;;;21.75;19.52;;;;;;;;;;5085529;28;20081;-56
2021/06/24 10:57:56;;;;;;;23.48;21.25;;;;;;;;;;5081600;28;20356;-54
2021/06/24 11:00:40;;;;;;;21.60;19.60;;;;;;;;;;5085062;28;20023;-54
2021/06/24 11:03:07;;;;;;;21.25;19.02;;;;;;;;;;5090647;28;20104;-56
2021/06/24 11:05:36;;;;;;;20.17;18.27;;;;;;;;;;5083344;28;20532;-56
2021/06/24 11:08:11;;;;;;;21.08;18.98;;;;;;;;;;5094080;28;20130;-56
2021/06/24 11:10:51;;;;;;;19.15;17.02;;;;;;;;;;5077989;28;20695;-56
2021/06/24 11:13:37;;;;;;;19.35;17.35;;;;;;;;;;5085208;28;20033;-56
2021/06/24 11:16:02;;;;;;;16.60;15.00;;;;;;;;;;5073523;28;20052;-52
2021/06/24 11:18:30;;;;;;;17.85;16.00;;;;;;;;;;5084892;28;20139;-56
2021/06/24 11:20:55;;;;;;;16.15;14.30;;;;;;;;;;5077666;28;20103;-53
2021/06/24 11:23:30;;;;;;;13.40;12.10;;;;;;;;;;5083383;28;20092;-55
2021/06/24 11:26:05;;;;;;;13.63;11.40;;;;;;;;;;5075592;28;20490;-54
2021/06/24 11:28:37;;;;;;;12.55;11.35;;;;;;;;;;5078664;28;20288;-53
2021/06/24 11:31:05;;;;;;;12.95;11.15;;;;;;;;;;5087934;28;20165;-51
2021/06/24 11:33:30;;;;;;;12.63;11.43;;;;;;;;;;5092520;28;20544;-54
2021/06/24 11:36:09;;;;;;;15.50;11.98;;;;;;;;;;5077481;28;20033;-53
2021/06/24 11:38:48;;;;;;;11.45;10.45;;;;;;;;;;5081116;28;20038;-53
2021/06/24 11:41:17;;;;;;;13.18;11.48;;;;;;;;;;5089873;28;20016;-54
2021/06/24 11:44:01;;;;;;;12.10;10.98;;;;;;;;;;5093309;28;20038;-53
2021/06/24 11:46:28;;;;;;;12.38;11.18;;;;;;;;;;5093153;28;20020;-54
2021/06/24 11:49:10;;;;;;;12.18;11.05;;;;;;;;;;5089889;28;20376;-56
2021/06/24 12:05:04;;;;;;;12.50;11.30;;;;;;;;;;5080239;28;20028;-55
2021/06/24 12:07:32;;;;;;;12.48;11.18;;;;;;;;;;5075365;28;20021;-54
2021/06/24 12:09:58;;;;;;;11.38;10.38;;;;;;;;;;5083319;28;20089;-53
2021/06/24 12:12:24;;;;;;;12.18;11.02;;;;;;;;;;5075808;28;20370;-51
2021/06/24 12:14:50;;;;;;;12.40;11.13;;;;;;;;;;5084047;28;20032;-56
2021/06/24 12:17:16;;;;;;;14.80;12.10;;;;;;;;;;5083296;28;20115;-54
2021/06/24 12:19:44;;;;;;;14.07;12.75;;;;;;;;;;5085380;28;20154;-55
2021/06/24 12:22:09;;;;;;;13.10;11.93;;;;;;;;;;5081816;28;20035;-56
2021/06/24 12:24:35;;;;;;;12.68;11.43;;;;;;;;;;5092943;28;20016;-54
2021/06/24 12:27:13;;;;;;;14.65;13.35;;;;;;;;;;5081268;28;20106;-53
2021/06/24 12:29:40;;;;;;;13.35;11.57;;;;;;;;;;5084171;28;20032;-55
2021/06/24 12:32:05;;;;;;;12.38;11.48;;;;;;;;;;5088701;28;20027;-54
2021/06/24 12:34:30;;;;;;;14.10;12.98;;;;;;;;;;5092332;28;20186;-53
2021/06/24 12:36:56;;;;;;;13.82;12.43;;;;;;;;;;5080925;28;20486;-55
2021/06/24 12:39:21;;;;;;;13.48;12.18;;;;;;;;;;5085878;28;20532;-54
2021/06/24 12:41:48;;;;;;;14.18;12.88;;;;;;;;;;5089873;28;20073;-56
2021/06/24 12:44:13;;;;;;;16.30;14.63;;;;;;;;;;5072940;28;20020;-56
2021/06/24 12:46:38;;;;;;;15.02;13.60;;;;;;;;;;5080534;28;20028;-54
2021/06/24 12:49:13;;;;;;;14.07;12.77;;;;;;;;;;5072939;28;20017;-53
2021/06/24 12:51:38;;;;;;;;;;;;;;;;;;5069583;28;20025;-55
2021/06/24 12:54:13;;;;;;;13.40;12.32;;;;;;;;;;5080644;28;20279;-54
2021/06/24 12:56:38;;;;;;;14.60;13.30;;;;;;;;;;5092824;28;20024;-54
2021/06/24 12:59:12;;;;;;;13.73;12.52;;;;;;;;;;5077224;28;20017;-56
2021/06/24 13:01:38;;;;;;;14.25;13.15;;;;;;;;;;5075213;28;20136;-54
2021/06/24 13:04:14;;;;;;;14.07;12.75;;;;;;;;;;5090248;28;20020;-54
2021/06/24 13:06:40;;;;;;;16.63;15.13;;;;;;;;;;5085728;28;20013;-56
2021/06/24 13:09:07;;;;;;;13.57;12.48;;;;;;;;;;5078529;28;20100;-54
2021/06/24 13:11:32;;;;;;;15.57;14.05;;;;;;;;;;5088893;28;20089;-55
2021/06/24 13:13:59;;;;;;;16.25;14.68;;;;;;;;;;5091619;28;20021;-55
2021/06/24 13:16:35;;;;;;;17.05;15.52;;;;;;;;;;5091971;28;20028;-56
2021/06/24 13:19:02;;;;;;;16.33;14.80;;;;;;;;;;5091787;28;20112;-56
2021/06/24 13:21:27;;;;;;;14.63;13.32;;;;;;;;;;5089058;28;20013;-54
2021/06/24 13:24:10;;;;;;;16.60;14.98;;;;;;;;;;5091013;28;20020;-54
2021/06/24 13:26:35;;;;;;;15.70;14.15;;;;;;;;;;5091799;28;20077;-56
2021/06/24 13:29:01;;;;;;;16.13;14.52;;;;;;;;;;5082384;28;20649;-55
2021/06/24 13:31:27;;;;;;;15.65;14.25;;;;;;;;;;5068944;28;20066;-54
2021/06/24 13:33:58;;;;;;;15.95;14.65;;;;;;;;;;5088205;28;20039;-50
2021/06/24 13:36:25;;;;;;;17.23;15.60;;;;;;;;;;5091826;28;20157;-55
2021/06/24 13:38:54;;;;;;;15.98;14.48;;;;;;;;;;5091342;28;20020;-55
2021/06/24 13:41:21;;;;;;;16.80;15.15;;;;;;;;;;5089058;28;20012;-54
2021/06/24 13:43:46;;;;;;;15.80;14.40;;;;;;;;;;5091245;28;20050;-54
2021/06/24 13:46:11;;;;;;;16.83;15.20;;;;;;;;;;5091666;28;20439;-53
2021/06/24 13:48:36;;;;;;;14.23;12.80;;;;;;;;;;5081041;28;20025;-52
2021/06/24 13:51:02;;;;;;;14.27;13.13;;;;;;;;;;5084214;28;20513;-54
2021/06/24 13:53:27;;;;;;;14.60;13.32;;;;;;;;;;5086046;28;20016;-55
2021/06/24 13:55:52;;;;;;;14.88;13.57;;;;;;;;;;5089260;28;20020;-55
2021/06/24 13:58:21;;;;;;;14.63;13.32;;;;;;;;;;5071873;28;20028;-55
2021/06/24 14:00:46;;;;;;;15.25;13.82;;;;;;;;;;5080723;28;20097;-53
2021/06/24 14:03:12;;;;;;;16.30;13.48;;;;;;;;;;5087724;28;20495;-54
2021/06/24 14:05:39;;;;;;;16.05;14.55;;;;;;;;;;5078114;28;20017;-55
2021/06/24 14:08:05;;;;;;;15.85;14.35;;;;;;;;;;5083752;28;20104;-54
2021/06/24 14:10:31;;;;;;;14.25;12.85;;;;;;;;;;5068929;28;20104;-55
2021/06/24 14:12:56;;;;;;;16.08;14.30;;;;;;;;;;5075539;28;20020;-52
2021/06/24 14:15:23;;;;;;;14.48;13.00;;;;;;;;;;5091663;28;20035;-54
2021/06/24 14:17:49;;;;;;;13.82;12.48;;;;;;;;;;5091420;28;20034;-52
2021/06/24 14:20:14;;;;;;;13.68;12.30;;;;;;;;;;5074766;28;20096;-54
2021/06/24 14:22:40;;;;;;;14.05;12.57;;;;;;;;;;5089598;28;20071;-53
2021/06/24 14:25:05;;;;;;;12.05;10.95;;;;;;;;;;5075517;28;20017;-54
2021/06/24 14:27:31;;;;;;;13.45;12.15;;;;;;;;;;5084372;28;20031;-54